sensor_id;sensor_type;location;lat;lon;timestamp;pressure;altitude;pressure_sealevel;temperature;humidity
50684;BME280;36654;45.042;38.994;2023-09-19T00:00:23;101610.88;;;17.99;47.66
50684;BME280;36654;45.042;38.994;2023-09-19T00:03:01;101598.38;;;17.92;47.82
50684;BME280;36654;45.042;38.994;2023-09-19T00:05:27;101612.72;;;17.91;47.81
50684;BME280;36654;45.042;38.994;2023-09-19T00:07:55;101611.81;;;17.92;47.89
50684;BME280;36654;45.042;38.994;2023-09-19T00:10:25;101592.19;;;17.83;48.07
50684;BME280;36654;45.042;38.994;2023-09-19T00:12:55;101616.31;;;17.86;47.78
50684;BME280;36654;45.042;38.994;2023-09-19T00:15:22;101624.34;;;17.79;48.14
50684;BME280;36654;45.042;38.994;2023-09-19T00:17:48;101595.81;;;17.65;48.29
50684;BME280;36654;45.042;38.994;2023-09-19T00:20:14;101615.44;;;17.74;48.45
50684;BME280;36654;45.042;38.994;2023-09-19T00:22:43;101631.53;;;17.71;48.29
50684;BME280;36654;45.042;38.994;2023-09-19T00:25:09;101617.25;;;17.68;48.54
50684;BME280;36654;45.042;38.994;2023-09-19T00:27:37;101619.06;;;17.63;48.74
50684;BME280;36654;45.042;38.994;2023-09-19T00:30:08;101622.66;;;17.62;48.93
50684;BME280;36654;45.042;38.994;2023-09-19T00:32:41;101614.63;;;17.58;48.89
50684;BME280;36654;45.042;38.994;2023-09-19T00:35:10;101600.34;;;17.53;49.23
50684;BME280;36654;45.042;38.994;2023-09-19T00:37:36;101599.47;;;17.48;49.18
50684;BME280;36654;45.042;38.994;2023-09-19T00:40:05;101616.41;;;17.54;49.12
50684;BME280;36654;45.042;38.994;2023-09-19T00:42:31;101622.66;;;17.52;49.24
50684;BME280;36654;45.042;38.994;2023-09-19T00:44:57;101618.22;;;17.44;49.33
50684;BME280;36654;45.042;38.994;2023-09-19T00:47:22;101622.66;;;17.47;49.59
50684;BME280;36654;45.042;38.994;2023-09-19T00:49:48;101619.13;;;17.43;49.70
50684;BME280;36654;45.042;38.994;2023-09-19T00:52:18;101620.91;;;17.43;49.87
50684;BME280;36654;45.042;38.994;2023-09-19T00:54:49;101621.84;;;17.37;49.98
50684;BME280;36654;45.042;38.994;2023-09-19T00:57:15;101621.84;;;17.37;50.13
50684;BME280;36654;45.042;38.994;2023-09-19T00:59:42;101629.00;;;17.35;50.22
50684;BME280;36654;45.042;38.994;2023-09-19T01:02:09;101618.28;;;17.24;50.16
50684;BME280;36654;45.042;38.994;2023-09-19T01:04:35;101566.53;;;16.99;50.37
50684;BME280;36654;45.042;38.994;2023-09-19T01:07:01;101611.13;;;17.22;50.40
50684;BME280;36654;45.042;38.994;2023-09-19T01:09:27;101622.75;;;17.25;50.44
50684;BME280;36654;45.042;38.994;2023-09-19T01:11:58;101625.44;;;17.22;51.05
50684;BME280;36654;45.042;38.994;2023-09-19T01:14:44;101627.22;;;17.19;50.97
50684;BME280;36654;45.042;38.994;2023-09-19T01:17:29;101629.91;;;17.14;51.31
50684;BME280;36654;45.042;38.994;2023-09-19T01:20:19;101579.09;;;16.85;51.25
50684;BME280;36654;45.042;38.994;2023-09-19T01:25:57;101624.56;;;17.03;51.37
50684;BME280;36654;45.042;38.994;2023-09-19T01:28:32;101625.47;;;16.99;51.79
50684;BME280;36654;45.042;38.994;2023-09-19T01:31:04;101629.06;;;16.95;51.71
50684;BME280;36654;45.042;38.994;2023-09-19T01:34:00;101627.25;;;16.94;51.80
50684;BME280;36654;45.042;38.994;2023-09-19T01:36:34;101585.31;;;16.66;52.22
50684;BME280;36654;45.042;38.994;2023-09-19T01:39:05;101613.88;;;16.79;52.20
50684;BME280;36654;45.042;38.994;2023-09-19T01:41:56;101625.47;;;16.84;52.32
50684;BME280;36654;45.042;38.994;2023-09-19T01:44:35;101609.41;;;16.73;52.54
50684;BME280;36654;45.042;38.994;2023-09-19T01:47:33;101599.59;;;16.63;52.84
50684;BME280;36654;45.042;38.994;2023-09-19T01:52:36;101623.69;;;16.75;53.01
50684;BME280;36654;45.042;38.994;2023-09-19T01:55:09;101625.47;;;16.73;53.17
50684;BME280;36654;45.042;38.994;2023-09-19T01:57:51;101618.34;;;16.68;53.32
50684;BME280;36654;45.042;38.994;2023-09-19T02:00:18;101607.59;;;16.58;53.34
50684;BME280;36654;45.042;38.994;2023-09-19T02:02:47;101615.66;;;16.60;53.27
50684;BME280;36654;45.042;38.994;2023-09-19T02:05:13;101581.75;;;16.41;53.58
50684;BME280;36654;45.042;38.994;2023-09-19T02:07:39;101589.75;;;16.42;53.56
50684;BME280;36654;45.042;38.994;2023-09-19T02:10:06;101627.22;;;16.54;53.84
50684;BME280;36654;45.042;38.994;2023-09-19T02:12:33;101621.88;;;16.54;53.94
50684;BME280;36654;45.042;38.994;2023-09-19T02:14:59;101618.28;;;16.52;54.20
50684;BME280;36654;45.042;38.994;2023-09-19T02:17:25;101571.00;;;16.19;53.94
50684;BME280;36654;45.042;38.994;2023-09-19T02:19:54;101629.88;;;16.42;54.24
50684;BME280;36654;45.042;38.994;2023-09-19T02:22:21;101621.00;;;16.40;54.52
50684;BME280;36654;45.042;38.994;2023-09-19T02:24:48;101620.97;;;16.34;54.38
50684;BME280;36654;45.042;38.994;2023-09-19T02:27:14;101630.78;;;16.32;54.74
50684;BME280;36654;45.042;38.994;2023-09-19T02:29:42;101632.53;;;16.27;54.69
50684;BME280;36654;45.042;38.994;2023-09-19T02:32:07;101626.28;;;16.25;55.15
50684;BME280;36654;45.042;38.994;2023-09-19T02:34:35;101606.66;;;16.16;55.07
50684;BME280;36654;45.042;38.994;2023-09-19T02:37:07;101634.31;;;16.22;55.16
50684;BME280;36654;45.042;38.994;2023-09-19T02:39:34;101609.34;;;16.13;55.35
50684;BME280;36654;45.042;38.994;2023-09-19T02:42:00;101625.41;;;16.15;55.34
50684;BME280;36654;45.042;38.994;2023-09-19T02:44:25;101610.22;;;16.14;55.51
50684;BME280;36654;45.042;38.994;2023-09-19T02:46:51;101597.72;;;16.04;55.58
50684;BME280;36654;45.042;38.994;2023-09-19T02:49:16;101618.25;;;16.06;55.75
50684;BME280;36654;45.042;38.994;2023-09-19T02:51:44;101616.47;;;16.05;55.74
50684;BME280;36654;45.042;38.994;2023-09-19T02:54:10;101620.91;;;16.06;55.82
50684;BME280;36654;45.042;38.994;2023-09-19T02:56:37;101616.44;;;15.99;55.86
50684;BME280;36654;45.042;38.994;2023-09-19T02:59:03;101634.28;;;16.03;56.03
50684;BME280;36654;45.042;38.994;2023-09-19T03:01:29;101638.72;;;16.01;55.81
50684;BME280;36654;45.042;38.994;2023-09-19T03:03:54;101589.59;;;15.74;55.94
50684;BME280;36654;45.042;38.994;2023-09-19T03:06:21;101649.41;;;16.00;56.17
50684;BME280;36654;45.042;38.994;2023-09-19T03:08:47;101640.50;;;15.96;56.10
50684;BME280;36654;45.042;38.994;2023-09-19T03:11:14;101634.25;;;15.91;56.34
50684;BME280;36654;45.042;38.994;2023-09-19T03:13:41;101648.50;;;15.88;56.26
50684;BME280;36654;45.042;38.994;2023-09-19T03:16:08;101660.16;;;16.12;56.04
50684;BME280;36654;45.042;38.994;2023-09-19T03:18:34;101646.84;;;16.36;55.73
50684;BME280;36654;45.042;38.994;2023-09-19T03:21:00;101642.41;;;16.66;54.92
50684;BME280;36654;45.042;38.994;2023-09-19T03:23:26;101648.69;;;16.97;53.91
50684;BME280;36654;45.042;38.994;2023-09-19T03:25:53;101653.09;;;17.29;53.14
50684;BME280;36654;45.042;38.994;2023-09-19T03:28:19;101628.91;;;17.54;52.19
50684;BME280;36654;45.042;38.994;2023-09-19T03:30:58;101650.28;;;17.86;51.38
50684;BME280;36654;45.042;38.994;2023-09-19T03:33:25;101643.91;;;18.08;50.78
50684;BME280;36654;45.042;38.994;2023-09-19T03:35:54;101635.75;;;18.25;49.96
50684;BME280;36654;45.042;38.994;2023-09-19T03:38:20;101608.75;;;18.47;49.15
50684;BME280;36654;45.042;38.994;2023-09-19T03:40:47;101654.97;;;18.93;48.09
50684;BME280;36654;45.042;38.994;2023-09-19T03:43:14;101650.28;;;19.14;47.69
50684;BME280;36654;45.042;38.994;2023-09-19T03:45:40;101638.47;;;19.32;47.06
50684;BME280;36654;45.042;38.994;2023-09-19T03:48:10;101654.31;;;19.56;46.60
50684;BME280;36654;45.042;38.994;2023-09-19T03:50:36;101636.38;;;19.58;45.77
50684;BME280;36654;45.042;38.994;2023-09-19T03:53:02;101649.66;;;19.75;45.86
50684;BME280;36654;45.042;38.994;2023-09-19T03:55:28;101646.97;;;19.77;45.83
50684;BME280;36654;45.042;38.994;2023-09-19T03:57:57;101645.09;;;19.82;45.27
50684;BME280;36654;45.042;38.994;2023-09-19T04:00:23;101627.25;;;19.75;45.38
50684;BME280;36654;45.042;38.994;2023-09-19T04:02:52;101649.50;;;19.88;45.36
50684;BME280;36654;45.042;38.994;2023-09-19T04:05:18;101657.47;;;19.95;44.91
50684;BME280;36654;45.042;38.994;2023-09-19T04:07:44;101641.22;;;20.04;45.16
50684;BME280;36654;45.042;38.994;2023-09-19T04:10:10;101641.16;;;20.08;44.92
50684;BME280;36654;45.042;38.994;2023-09-19T04:12:37;101634.00;;;20.07;44.72
50684;BME280;36654;45.042;38.994;2023-09-19T04:15:05;101573.31;;;19.84;44.42
50684;BME280;36654;45.042;38.994;2023-09-19T04:17:31;101619.41;;;20.23;44.06
50684;BME280;36654;45.042;38.994;2023-09-19T04:19:59;101647.84;;;20.42;44.25
50684;BME280;36654;45.042;38.994;2023-09-19T04:22:25;101573.59;;;20.26;43.50
50684;BME280;36654;45.042;38.994;2023-09-19T04:24:51;101641.03;;;20.77;43.05
50684;BME280;36654;45.042;38.994;2023-09-19T04:27:17;101649.72;;;20.95;43.09
50684;BME280;36654;45.042;38.994;2023-09-19T04:29:44;101630.00;;;20.93;42.80
50684;BME280;36654;45.042;38.994;2023-09-19T04:32:10;101638.81;;;21.02;42.74
50684;BME280;36654;45.042;38.994;2023-09-19T04:34:36;101653.81;;;21.17;42.58
50684;BME280;36654;45.042;38.994;2023-09-19T04:37:03;101648.94;;;21.36;41.82
50684;BME280;36654;45.042;38.994;2023-09-19T04:39:29;101649.00;;;21.35;41.85
50684;BME280;36654;45.042;38.994;2023-09-19T04:41:55;101608.03;;;21.14;41.79
50684;BME280;36654;45.042;38.994;2023-09-19T04:44:21;101609.09;;;21.05;42.21
50684;BME280;36654;45.042;38.994;2023-09-19T04:46:47;101618.00;;;21.09;42.15
50684;BME280;36654;45.042;38.994;2023-09-19T04:49:12;101639.22;;;20.78;42.94
50684;BME280;36654;45.042;38.994;2023-09-19T04:51:39;101638.38;;;20.17;43.97
50684;BME280;36654;45.042;38.994;2023-09-19T04:54:05;101652.34;;;19.77;45.08
50684;BME280;36654;45.042;38.994;2023-09-19T04:56:32;101633.09;;;19.32;45.68
50684;BME280;36654;45.042;38.994;2023-09-19T04:58:58;101659.16;;;19.24;46.52
50684;BME280;36654;45.042;38.994;2023-09-19T05:01:27;101663.81;;;19.06;46.89
50684;BME280;36654;45.042;38.994;2023-09-19T05:03:53;101653.19;;;18.91;47.19
50684;BME280;36654;45.042;38.994;2023-09-19T05:06:21;101667.53;;;18.93;47.58
50684;BME280;36654;45.042;38.994;2023-09-19T05:08:48;101665.78;;;18.86;47.70
50684;BME280;36654;45.042;38.994;2023-09-19T05:11:21;101655.06;;;18.83;47.69
50684;BME280;36654;45.042;38.994;2023-09-19T05:13:49;101623.00;;;18.58;47.95
50684;BME280;36654;45.042;38.994;2023-09-19T05:16:18;101655.97;;;18.83;47.97
50684;BME280;36654;45.042;38.994;2023-09-19T05:18:44;101630.13;;;18.65;48.25
50684;BME280;36654;45.042;38.994;2023-09-19T05:21:10;101656.84;;;18.85;47.96
50684;BME280;36654;45.042;38.994;2023-09-19T05:23:36;101662.22;;;18.84;48.31
50684;BME280;36654;45.042;38.994;2023-09-19T05:26:02;101655.09;;;18.80;47.79
50684;BME280;36654;45.042;38.994;2023-09-19T05:28:29;101664.00;;;18.83;48.19
50684;BME280;36654;45.042;38.994;2023-09-19T05:30:55;101649.66;;;18.86;47.95
50684;BME280;36654;45.042;38.994;2023-09-19T05:33:20;101657.66;;;18.92;48.08
50684;BME280;36654;45.042;38.994;2023-09-19T05:35:49;101662.13;;;18.96;47.70
50684;BME280;36654;45.042;38.994;2023-09-19T05:38:15;101678.22;;;18.96;47.73
50684;BME280;36654;45.042;38.994;2023-09-19T05:40:45;101667.44;;;18.99;47.81
50684;BME280;36654;45.042;38.994;2023-09-19T05:43:10;101662.97;;;19.01;47.76
50684;BME280;36654;45.042;38.994;2023-09-19T05:45:36;101662.03;;;19.05;47.39
50684;BME280;36654;45.042;38.994;2023-09-19T05:48:10;101653.94;;;19.10;47.32
50684;BME280;36654;45.042;38.994;2023-09-19T05:50:40;101619.16;;;18.93;47.25
50684;BME280;36654;45.042;38.994;2023-09-19T05:53:06;101662.72;;;19.24;47.08
50684;BME280;36654;45.042;38.994;2023-09-19T05:55:32;101665.34;;;19.32;46.66
50684;BME280;36654;45.042;38.994;2023-09-19T05:57:58;101670.72;;;19.35;46.10
50684;BME280;36654;45.042;38.994;2023-09-19T06:00:24;101676.91;;;19.43;45.64
50684;BME280;36654;45.042;38.994;2023-09-19T06:02:56;101663.41;;;19.48;46.04
50684;BME280;36654;45.042;38.994;2023-09-19T06:05:23;101675.03;;;19.50;45.31
50684;BME280;36654;45.042;38.994;2023-09-19T06:07:49;101690.25;;;19.49;45.08
50684;BME280;36654;45.042;38.994;2023-09-19T06:10:16;101670.44;;;19.59;44.52
50684;BME280;36654;45.042;38.994;2023-09-19T06:12:43;101681.16;;;19.63;44.98
50684;BME280;36654;45.042;38.994;2023-09-19T06:15:10;101679.31;;;19.71;45.13
50684;BME280;36654;45.042;38.994;2023-09-19T06:17:50;101669.38;;;19.74;44.83
50684;BME280;36654;45.042;38.994;2023-09-19T06:20:16;101677.44;;;19.74;44.00
50684;BME280;36654;45.042;38.994;2023-09-19T06:22:43;101688.16;;;19.82;44.30
50684;BME280;36654;45.042;38.994;2023-09-19T06:25:14;101644.44;;;19.58;44.06
50684;BME280;36654;45.042;38.994;2023-09-19T06:27:49;101673.78;;;19.81;44.17
50684;BME280;36654;45.042;38.994;2023-09-19T06:30:18;101704.22;;;19.88;44.05
50684;BME280;36654;45.042;38.994;2023-09-19T06:32:44;101675.53;;;19.84;44.04
50684;BME280;36654;45.042;38.994;2023-09-19T06:35:14;101683.59;;;19.87;44.07
50684;BME280;36654;45.042;38.994;2023-09-19T06:37:40;101680.94;;;19.84;43.99
50684;BME280;36654;45.042;38.994;2023-09-19T06:40:11;101688.03;;;19.91;44.22
50684;BME280;36654;45.042;38.994;2023-09-19T06:42:44;101671.81;;;19.97;44.02
50684;BME280;36654;45.042;38.994;2023-09-19T06:45:11;101678.91;;;20.01;44.36
50684;BME280;36654;45.042;38.994;2023-09-19T06:47:39;101662.91;;;19.89;43.86
50684;BME280;36654;45.042;38.994;2023-09-19T06:50:05;101709.34;;;20.07;44.07
50684;BME280;36654;45.042;38.994;2023-09-19T06:52:34;101618.16;;;19.85;44.37
50684;BME280;36654;45.042;38.994;2023-09-19T06:55:00;101659.03;;;20.15;44.47
50684;BME280;36654;45.042;38.994;2023-09-19T06:57:28;101623.22;;;20.10;43.92
50684;BME280;36654;45.042;38.994;2023-09-19T06:59:55;101649.75;;;20.34;43.98
50684;BME280;36654;45.042;38.994;2023-09-19T07:02:21;101599.81;;;20.15;43.95
50684;BME280;36654;45.042;38.994;2023-09-19T07:04:47;101647.84;;;20.41;43.68
50684;BME280;36654;45.042;38.994;2023-09-19T07:07:13;101661.13;;;20.53;43.68
50684;BME280;36654;45.042;38.994;2023-09-19T07:09:39;101662.06;;;20.51;43.93
50684;BME280;36654;45.042;38.994;2023-09-19T07:12:05;101631.75;;;20.39;44.24
50684;BME280;36654;45.042;38.994;2023-09-19T07:14:31;101650.28;;;20.61;43.79
50684;BME280;36654;45.042;38.994;2023-09-19T07:17:00;101672.56;;;20.71;43.71
50684;BME280;36654;45.042;38.994;2023-09-19T07:19:26;101634.25;;;20.50;42.99
50684;BME280;36654;45.042;38.994;2023-09-19T07:21:55;101673.44;;;20.73;43.15
50684;BME280;36654;45.042;38.994;2023-09-19T07:24:21;101652.56;;;20.85;43.14
50684;BME280;36654;45.042;38.994;2023-09-19T07:26:49;101652.44;;;20.95;42.91
50684;BME280;36654;45.042;38.994;2023-09-19T07:29:15;101668.38;;;21.07;42.65
50684;BME280;36654;45.042;38.994;2023-09-19T07:31:41;101666.31;;;21.21;42.69
50684;BME280;36654;45.042;38.994;2023-09-19T07:34:07;101670.56;;;21.35;42.50
50684;BME280;36654;45.042;38.994;2023-09-19T07:36:34;101643.34;;;21.48;41.66
50684;BME280;36654;45.042;38.994;2023-09-19T07:39:00;101669.13;;;21.63;41.35
50684;BME280;36654;45.042;38.994;2023-09-19T07:41:25;101662.72;;;21.70;40.90
50684;BME280;36654;45.042;38.994;2023-09-19T07:43:51;101670.72;;;21.73;40.29
50684;BME280;36654;45.042;38.994;2023-09-19T07:46:17;101663.41;;;21.80;40.38
50684;BME280;36654;45.042;38.994;2023-09-19T07:48:43;101644.84;;;21.65;40.29
50684;BME280;36654;45.042;38.994;2023-09-19T07:51:13;101654.19;;;21.92;40.33
50684;BME280;36654;45.042;38.994;2023-09-19T07:53:39;101631.47;;;22.01;40.45
50684;BME280;36654;45.042;38.994;2023-09-19T07:56:09;101625.88;;;22.10;39.99
50684;BME280;36654;45.042;38.994;2023-09-19T07:58:35;101628.47;;;22.14;39.63
50684;BME280;36654;45.042;38.994;2023-09-19T08:01:06;101638.97;;;22.28;39.83
50684;BME280;36654;45.042;38.994;2023-09-19T08:03:35;101636.06;;;22.39;39.04
50684;BME280;36654;45.042;38.994;2023-09-19T08:06:05;101629.50;;;22.49;38.78
50684;BME280;36654;45.042;38.994;2023-09-19T08:08:32;101611.47;;;22.50;38.13
50684;BME280;36654;45.042;38.994;2023-09-19T08:10:59;101634.66;;;22.58;37.99
50684;BME280;36654;45.042;38.994;2023-09-19T08:13:26;101642.56;;;22.66;38.16
50684;BME280;36654;45.042;38.994;2023-09-19T08:15:52;101621.88;;;22.67;37.84
50684;BME280;36654;45.042;38.994;2023-09-19T08:18:21;101623.63;;;22.68;37.35
50684;BME280;36654;45.042;38.994;2023-09-19T08:20:51;101614.66;;;22.66;37.29
50684;BME280;36654;45.042;38.994;2023-09-19T08:23:18;101600.09;;;22.71;36.65
50684;BME280;36654;45.042;38.994;2023-09-19T08:25:46;101585.78;;;22.68;36.87
50684;BME280;36654;45.042;38.994;2023-09-19T08:28:11;101615.88;;;22.88;36.24
50684;BME280;36654;45.042;38.994;2023-09-19T08:30:39;101599.44;;;22.99;36.10
50684;BME280;36654;45.042;38.994;2023-09-19T08:33:06;101593.88;;;23.03;35.82
50684;BME280;36654;45.042;38.994;2023-09-19T08:35:33;101561.63;;;22.97;36.14
50684;BME280;36654;45.042;38.994;2023-09-19T08:37:59;101601.31;;;23.28;35.20
50684;BME280;36654;45.042;38.994;2023-09-19T08:40:30;101598.63;;;23.28;35.52
50684;BME280;36654;45.042;38.994;2023-09-19T08:42:59;101559.34;;;23.15;35.32
50684;BME280;36654;45.042;38.994;2023-09-19T08:45:25;101559.91;;;23.26;35.04
50684;BME280;36654;45.042;38.994;2023-09-19T08:50:29;101573.31;;;23.62;34.72
50684;BME280;36654;45.042;38.994;2023-09-19T08:52:56;101582.19;;;23.65;34.66
50684;BME280;36654;45.042;38.994;2023-09-19T08:55:27;101561.44;;;23.66;34.15
50684;BME280;36654;45.042;38.994;2023-09-19T08:58:00;101566.44;;;23.81;33.53
50684;BME280;36654;45.042;38.994;2023-09-19T09:00:28;101589.75;;;23.85;33.29
50684;BME280;36654;45.042;38.994;2023-09-19T09:02:55;101591.63;;;23.83;32.80
50684;BME280;36654;45.042;38.994;2023-09-19T09:05:23;101576.34;;;23.81;32.92
50684;BME280;36654;45.042;38.994;2023-09-19T09:07:52;101594.28;;;23.85;32.90
50684;BME280;36654;45.042;38.994;2023-09-19T09:10:22;101585.19;;;23.87;32.78
50684;BME280;36654;45.042;38.994;2023-09-19T09:12:52;101593.09;;;23.94;32.20
50684;BME280;36654;45.042;38.994;2023-09-19T09:15:22;101552.50;;;23.94;32.18
50684;BME280;36654;45.042;38.994;2023-09-19T09:17:51;101544.28;;;23.97;32.67
50684;BME280;36654;45.042;38.994;2023-09-19T09:20:19;101543.91;;;24.09;33.23
50684;BME280;36654;45.042;38.994;2023-09-19T09:22:55;101570.78;;;24.15;32.10
50684;BME280;36654;45.042;38.994;2023-09-19T09:25:48;101548.91;;;24.21;32.45
50684;BME280;36654;45.042;38.994;2023-09-19T09:28:24;101532.34;;;24.30;32.36
50684;BME280;36654;45.042;38.994;2023-09-19T09:30:50;101557.56;;;24.32;31.60
50684;BME280;36654;45.042;38.994;2023-09-19T09:33:17;101548.81;;;24.24;31.37
50684;BME280;36654;45.042;38.994;2023-09-19T09:35:54;101520.84;;;24.24;31.00
50684;BME280;36654;45.042;38.994;2023-09-19T09:38:30;101503.59;;;24.26;31.51
50684;BME280;36654;45.042;38.994;2023-09-19T09:41:09;101522.09;;;24.40;30.77
50684;BME280;36654;45.042;38.994;2023-09-19T09:43:36;101507.41;;;24.47;31.00
50684;BME280;36654;45.042;38.994;2023-09-19T09:46:16;101522.69;;;24.50;30.84
50684;BME280;36654;45.042;38.994;2023-09-19T09:48:59;101561.47;;;24.52;30.95
50684;BME280;36654;45.042;38.994;2023-09-19T09:52:01;101493.56;;;24.28;30.55
50684;BME280;36654;45.042;38.994;2023-09-19T09:54:33;101498.69;;;24.38;30.77
50684;BME280;36654;45.042;38.994;2023-09-19T09:57:03;101511.16;;;24.17;30.81
50684;BME280;36654;45.042;38.994;2023-09-19T09:59:52;101481.59;;;24.36;30.56
50684;BME280;36654;45.042;38.994;2023-09-19T10:02:27;101494.56;;;24.54;30.82
50684;BME280;36654;45.042;38.994;2023-09-19T10:05:12;101460.75;;;24.38;30.55
50684;BME280;36654;45.042;38.994;2023-09-19T10:07:54;101509.47;;;24.66;30.39
50684;BME280;36654;45.042;38.994;2023-09-19T10:10:36;101553.34;;;24.52;30.46
50684;BME280;36654;45.042;38.994;2023-09-19T10:13:06;101481.00;;;24.26;30.45
50684;BME280;36654;45.042;38.994;2023-09-19T10:15:33;101492.22;;;24.42;30.82
50684;BME280;36654;45.042;38.994;2023-09-19T10:18:04;101477.56;;;24.49;29.72
50684;BME280;36654;45.042;38.994;2023-09-19T10:20:30;101498.81;;;24.61;29.43
50684;BME280;36654;45.042;38.994;2023-09-19T10:23:01;101494.13;;;24.66;29.43
50684;BME280;36654;45.042;38.994;2023-09-19T10:25:29;101472.75;;;24.57;29.47
50684;BME280;36654;45.042;38.994;2023-09-19T10:27:57;101487.91;;;24.63;29.72
50684;BME280;36654;45.042;38.994;2023-09-19T10:30:24;101416.56;;;24.36;29.80
50684;BME280;36654;45.042;38.994;2023-09-19T10:33:00;101470.50;;;24.70;29.11
50684;BME280;36654;45.042;38.994;2023-09-19T10:35:27;101462.41;;;24.68;29.33
50684;BME280;36654;45.042;38.994;2023-09-19T10:37:59;101475.91;;;24.70;28.89
50684;BME280;36654;45.042;38.994;2023-09-19T10:40:26;101460.31;;;24.77;29.24
50684;BME280;36654;45.042;38.994;2023-09-19T10:43:00;101473.75;;;24.80;29.05
50684;BME280;36654;45.042;38.994;2023-09-19T10:45:28;101472.03;;;24.77;29.09
50684;BME280;36654;45.042;38.994;2023-09-19T10:47:57;101420.13;;;24.63;29.52
50684;BME280;36654;45.042;38.994;2023-09-19T10:50:23;101438.84;;;24.70;29.14
50684;BME280;36654;45.042;38.994;2023-09-19T10:52:53;101396.91;;;24.56;29.33
50684;BME280;36654;45.042;38.994;2023-09-19T10:55:27;101426.72;;;24.81;29.21
50684;BME280;36654;45.042;38.994;2023-09-19T10:57:53;101438.75;;;24.97;28.24
50684;BME280;36654;45.042;38.994;2023-09-19T11:00:23;101434.03;;;25.02;28.34
50684;BME280;36654;45.042;38.994;2023-09-19T11:03:22;101446.66;;;25.03;28.44
50684;BME280;36654;45.042;38.994;2023-09-19T11:08:59;101424.94;;;25.03;28.66
50684;BME280;36654;45.042;38.994;2023-09-19T11:33:32;101410.09;;;25.13;27.52
50684;BME280;36654;45.042;38.994;2023-09-19T11:36:11;101403.47;;;25.22;27.51
50684;BME280;36654;45.042;38.994;2023-09-19T11:49:29;101364.38;;;25.50;27.97
50684;BME280;36654;45.042;38.994;2023-09-19T11:51:58;101363.63;;;25.46;27.70
50684;BME280;36654;45.042;38.994;2023-09-19T11:54:27;101370.81;;;25.47;27.58
50684;BME280;36654;45.042;38.994;2023-09-19T11:56:58;101366.25;;;25.48;27.79
50684;BME280;36654;45.042;38.994;2023-09-19T11:59:28;101315.63;;;25.25;27.78
50684;BME280;36654;45.042;38.994;2023-09-19T12:01:55;101353.69;;;25.45;27.58
50684;BME280;36654;45.042;38.994;2023-09-19T12:04:38;101352.75;;;25.46;27.83
50684;BME280;36654;45.042;38.994;2023-09-19T12:07:09;101358.97;;;25.48;27.75
50684;BME280;36654;45.042;38.994;2023-09-19T12:09:42;101317.53;;;25.23;27.85
50684;BME280;36654;45.042;38.994;2023-09-19T12:12:10;101351.81;;;25.47;28.15
50684;BME280;36654;45.042;38.994;2023-09-19T12:14:38;101304.53;;;25.31;28.13
50684;BME280;36654;45.042;38.994;2023-09-19T12:17:05;101343.38;;;25.53;27.86
50684;BME280;36654;45.042;38.994;2023-09-19T12:19:30;101377.38;;;25.64;27.66
50684;BME280;36654;45.042;38.994;2023-09-19T12:22:01;101343.19;;;25.58;27.94
50684;BME280;36654;45.042;38.994;2023-09-19T12:24:31;101341.38;;;25.58;27.94
50684;BME280;36654;45.042;38.994;2023-09-19T12:27:06;101348.56;;;25.59;27.73
50684;BME280;36654;45.042;38.994;2023-09-19T12:29:46;101351.84;;;25.68;27.60
50684;BME280;36654;45.042;38.994;2023-09-19T12:32:12;101333.66;;;25.70;27.41
50684;BME280;36654;45.042;38.994;2023-09-19T12:34:38;101313.84;;;25.68;27.15
50684;BME280;36654;45.042;38.994;2023-09-19T12:37:12;101340.25;;;25.64;26.84
50684;BME280;36654;45.042;38.994;2023-09-19T12:39:44;101332.66;;;25.72;26.53
50684;BME280;36654;45.042;38.994;2023-09-19T12:42:18;101336.38;;;25.70;26.57
50684;BME280;36654;45.042;38.994;2023-09-19T12:44:46;101310.56;;;25.59;26.69
50684;BME280;36654;45.042;38.994;2023-09-19T12:47:18;101311.94;;;25.70;26.65
50684;BME280;36654;45.042;38.994;2023-09-19T12:52:39;101353.13;;;25.81;26.40
50684;BME280;36654;45.042;38.994;2023-09-19T12:55:05;101297.00;;;25.59;26.15
50684;BME280;36654;45.042;38.994;2023-09-19T12:57:33;101312.44;;;25.79;26.58
50684;BME280;36654;45.042;38.994;2023-09-19T13:00:03;101318.88;;;25.77;26.26
50684;BME280;36654;45.042;38.994;2023-09-19T13:02:36;101303.22;;;25.83;26.61
50684;BME280;36654;45.042;38.994;2023-09-19T13:05:03;101259.94;;;25.58;26.21
50684;BME280;36654;45.042;38.994;2023-09-19T13:07:45;101297.69;;;25.87;26.57
50684;BME280;36654;45.042;38.994;2023-09-19T13:10:15;101310.09;;;25.92;26.58
50684;BME280;36654;45.042;38.994;2023-09-19T13:12:42;101283.00;;;25.91;26.37
50684;BME280;36654;45.042;38.994;2023-09-19T13:15:13;101271.25;;;25.90;26.50
50684;BME280;36654;45.042;38.994;2023-09-19T13:17:49;101315.13;;;26.01;26.54
50684;BME280;36654;45.042;38.994;2023-09-19T13:20:25;101267.88;;;25.85;25.89
50684;BME280;36654;45.042;38.994;2023-09-19T13:22:55;101267.72;;;25.88;25.68
50684;BME280;36654;45.042;38.994;2023-09-19T13:25:25;101296.53;;;25.92;25.41
50684;BME280;36654;45.042;38.994;2023-09-19T13:27:54;101267.81;;;25.87;25.53
50684;BME280;36654;45.042;38.994;2023-09-19T13:30:25;101281.72;;;25.99;25.92
50684;BME280;36654;45.042;38.994;2023-09-19T13:32:52;101317.72;;;26.04;25.51
50684;BME280;36654;45.042;38.994;2023-09-19T13:35:19;101287.16;;;25.99;25.33
50684;BME280;36654;45.042;38.994;2023-09-19T13:37:47;101302.63;;;25.97;25.38